Time;durP1;ratioP1;P1;durP2;ratioP2;P2;SDS_P1;SDS_P2;PMS_P1;PMS_P2;Temp;Humidity;BMP_temperature;BMP_pressure;BME280_temperature;BME280_humidity;BME280_pressure;Samples;Min_cycle;Max_cycle;Signal;HPM_P1;HPM_P2
2022/01/11 00:00:35;;;;;;;26.10;13.90;;;9.10;90.20;;;;;;1924778;74;21022;-46
2022/01/11 00:03:05;;;;;;;22.67;14.73;;;9.10;90.30;;;;;;1922813;74;21046;-48
2022/01/11 00:05:42;;;;;;;22.22;14.73;;;9.10;90.20;;;;;;1924783;74;21026;-46
2022/01/11 00:08:08;;;;;;;18.85;12.88;;;9.10;90.20;;;;;;1924499;74;21108;-45
2022/01/11 00:10:50;;;;;;;26.73;14.03;;;9.00;90.10;;;;;;1924813;74;21125;-45
2022/01/11 00:13:19;;;;;;;22.37;14.20;;;9.00;90.10;;;;;;1924767;74;21104;-45
2022/01/11 00:15:49;;;;;;;21.95;13.10;;;8.90;90.20;;;;;;1924880;74;21019;-46
2022/01/11 00:18:18;;;;;;;21.97;12.63;;;8.90;90.30;;;;;;1924855;74;21018;-45
2022/01/11 00:20:48;;;;;;;20.37;12.88;;;8.90;90.30;;;;;;1924853;74;21147;-45
2022/01/11 00:25:48;;;;;;;19.35;12.88;;;8.90;90.40;;;;;;1924743;74;21458;-45
2022/01/11 00:28:19;;;;;;;18.77;12.68;;;8.90;90.20;;;;;;1924922;74;21018;-45
2022/01/11 00:30:50;;;;;;;18.07;12.70;;;9.00;90.40;;;;;;1924038;74;21085;-45
2022/01/11 00:33:29;;;;;;;17.42;12.10;;;9.00;90.40;;;;;;1924819;74;21058;-45
2022/01/11 00:36:03;;;;;;;16.20;11.43;;;9.00;90.40;;;;;;1924046;74;21692;-46
2022/01/11 00:38:35;;;;;;;15.13;11.05;;;9.00;90.40;;;;;;1924674;74;21026;-45
2022/01/11 00:41:07;;;;;;;22.85;12.93;;;9.00;90.50;;;;;;1924672;74;21112;-47
2022/01/11 00:43:38;;;;;;;19.32;12.55;;;9.00;90.30;;;;;;1924642;74;20995;-45
2022/01/11 00:46:09;;;;;;;21.62;11.95;;;8.90;90.30;;;;;;1924736;74;21096;-45
2022/01/11 00:48:39;;;;;;;18.48;12.25;;;8.90;90.50;;;;;;1924751;74;21030;-47
2022/01/11 00:51:11;;;;;;;23.83;13.48;;;8.90;90.50;;;;;;1924844;74;21038;-45
2022/01/11 00:53:42;;;;;;;21.42;12.82;;;8.90;90.60;;;;;;1924896;74;21050;-45
2022/01/11 00:56:11;;;;;;;17.27;11.88;;;8.90;90.60;;;;;;1924776;74;21050;-45
2022/01/11 00:58:41;;;;;;;23.45;12.30;;;8.90;90.50;;;;;;1924756;74;21062;-46
2022/01/11 01:01:10;;;;;;;22.52;13.00;;;8.80;90.50;;;;;;1924824;74;21073;-46
2022/01/11 01:03:40;;;;;;;21.48;12.35;;;8.80;90.60;;;;;;1924793;74;21018;-45
2022/01/11 01:06:09;;;;;;;23.80;12.05;;;8.80;90.50;;;;;;1924967;74;21054;-45
2022/01/11 01:08:38;;;;;;;19.82;11.60;;;8.80;90.60;;;;;;1924858;74;21030;-46
2022/01/11 01:11:10;;;;;;;18.65;11.95;;;8.80;90.60;;;;;;1921803;74;21051;-45
2022/01/11 01:13:40;;;;;;;18.50;12.55;;;8.80;90.70;;;;;;1905194;74;21185;-45
2022/01/11 01:16:11;;;;;;;16.70;11.50;;;8.90;90.80;;;;;;1905583;74;21089;-45
2022/01/11 01:18:45;;;;;;;20.40;12.93;;;8.90;90.70;;;;;;1898746;75;21129;-45
2022/01/11 01:21:14;;;;;;;19.90;13.25;;;8.90;90.70;;;;;;1905497;75;21027;-45
2022/01/11 01:23:44;;;;;;;19.27;12.05;;;9.00;90.70;;;;;;1905429;75;21031;-45
2022/01/11 01:26:17;;;;;;;27.48;12.33;;;9.00;90.70;;;;;;1905549;74;21028;-45
2022/01/11 01:28:47;;;;;;;19.17;12.05;;;9.00;90.70;;;;;;1905433;74;21028;-46
2022/01/11 01:31:17;;;;;;;18.15;11.93;;;9.00;90.70;;;;;;1905477;74;21509;-45
2022/01/11 01:33:46;;;;;;;19.05;12.28;;;9.00;90.70;;;;;;1905537;75;21031;-48
2022/01/11 01:36:16;;;;;;;19.30;12.60;;;9.00;90.70;;;;;;1905454;74;21023;-46
2022/01/11 01:38:45;;;;;;;18.05;12.73;;;9.00;90.80;;;;;;1905468;75;21081;-45
2022/01/11 01:41:21;;;;;;;17.32;12.65;;;9.10;90.80;;;;;;1905420;75;21011;-45
2022/01/11 01:43:47;;;;;;;21.50;12.40;;;9.10;90.70;;;;;;1904124;74;21027;-46
2022/01/11 01:46:17;;;;;;;20.97;13.85;;;9.10;90.70;;;;;;1905340;75;21281;-45
2022/01/11 01:48:47;;;;;;;19.48;12.15;;;9.00;90.70;;;;;;1905342;75;21027;-45
2022/01/11 01:51:17;;;;;;;19.27;12.85;;;9.00;90.70;;;;;;1905330;75;21022;-46
2022/01/11 01:53:49;;;;;;;19.12;12.28;;;9.00;90.70;;;;;;1905374;75;21027;-45
2022/01/11 01:56:20;;;;;;;21.62;12.40;;;9.00;90.70;;;;;;1905386;75;21028;-45
2022/01/11 01:58:50;;;;;;;20.02;12.33;;;9.00;90.70;;;;;;1905445;74;21156;-45
2022/01/11 02:01:21;;;;;;;19.55;12.65;;;9.00;90.80;;;;;;1905461;74;20999;-45
2022/01/11 02:03:50;;;;;;;18.10;12.40;;;9.00;90.70;;;;;;1905441;75;21097;-45
2022/01/11 02:06:21;;;;;;;21.00;13.00;;;9.10;90.80;;;;;;1905350;74;21022;-45
2022/01/11 02:08:51;;;;;;;20.68;12.25;;;9.10;90.70;;;;;;1905439;74;21109;-46
2022/01/11 02:11:22;;;;;;;20.00;12.07;;;9.10;90.80;;;;;;1905493;75;21085;-45
2022/01/11 02:13:53;;;;;;;18.90;11.75;;;9.10;90.80;;;;;;1924620;74;21026;-45
2022/01/11 02:16:23;;;;;;;20.05;13.65;;;9.10;90.80;;;;;;1924687;74;21038;-45
2022/01/11 02:18:54;;;;;;;19.37;13.60;;;9.10;90.80;;;;;;1924415;74;21087;-45
2022/01/11 02:21:24;;;;;;;17.82;11.95;;;9.10;90.70;;;;;;1924699;74;21085;-44
2022/01/11 02:23:54;;;;;;;22.45;13.53;;;9.00;90.60;;;;;;1924764;74;20995;-48
2022/01/11 02:26:25;;;;;;;20.82;11.75;;;9.00;90.60;;;;;;1924762;74;20998;-45
2022/01/11 02:28:54;;;;;;;19.85;12.60;;;9.00;90.70;;;;;;1924696;74;21026;-45
2022/01/11 02:31:24;;;;;;;17.60;12.18;;;9.00;90.70;;;;;;1924891;74;21077;-49
2022/01/11 02:33:58;;;;;;;17.60;11.65;;;9.00;90.80;;;;;;1924520;74;21118;-45
2022/01/11 02:36:41;;;;;;;15.80;10.38;;;9.00;90.80;;;;;;1924855;74;21055;-45
2022/01/11 02:39:18;;;;;;;16.90;10.95;;;9.00;90.80;;;;;;1919570;74;21042;-46
2022/01/11 02:41:53;;;;;;;19.73;11.22;;;9.00;90.70;;;;;;1924943;74;21022;-45
2022/01/11 02:44:27;;;;;;;15.30;11.15;;;9.00;90.80;;;;;;1924128;74;21088;-46
2022/01/11 02:46:57;;;;;;;19.82;12.58;;;9.00;90.80;;;;;;1924825;74;20999;-46
2022/01/11 02:49:28;;;;;;;16.35;11.20;;;9.00;90.80;;;;;;1924866;74;21108;-45
2022/01/11 02:51:59;;;;;;;19.75;12.53;;;9.00;90.80;;;;;;1924042;74;21135;-45
2022/01/11 02:54:29;;;;;;;18.92;11.48;;;9.00;90.70;;;;;;1925019;74;20995;-46
2022/01/11 02:56:59;;;;;;;17.05;11.85;;;9.00;90.70;;;;;;1923497;74;21018;-45
2022/01/11 02:59:29;;;;;;;15.80;11.43;;;9.00;90.70;;;;;;1924880;74;21019;-46
2022/01/11 03:01:58;;;;;;;17.77;11.28;;;8.90;90.60;;;;;;1924796;74;21109;-47
2022/01/11 03:04:33;;;;;;;15.93;12.23;;;8.80;90.70;;;;;;1924910;74;20995;-46
2022/01/11 03:07:03;;;;;;;14.60;10.30;;;8.80;90.80;;;;;;1925003;74;21022;-45
2022/01/11 03:09:48;;;;;;;16.25;11.48;;;8.80;90.80;;;;;;1924552;74;21129;-46
2022/01/11 03:12:06;;;;;;;18.27;10.88;;;8.80;90.80;;;;;;1922822;74;21074;-46
2022/01/11 03:14:35;;;;;;;16.55;11.03;;;8.80;90.70;;;;;;1924848;74;21080;-46
2022/01/11 03:17:05;;;;;;;14.63;10.63;;;8.70;90.70;;;;;;1924848;74;21096;-46
2022/01/11 03:19:36;;;;;;;17.12;11.00;;;8.70;90.80;;;;;;1924892;74;21076;-45
2022/01/11 03:22:06;;;;;;;19.77;11.45;;;8.70;90.90;;;;;;1924744;74;21473;-45
2022/01/11 03:24:35;;;;;;;15.70;10.70;;;8.70;90.90;;;;;;1924643;74;21015;-45
2022/01/11 03:27:07;;;;;;;14.95;11.30;;;8.70;90.80;;;;;;1924649;74;21023;-45
2022/01/11 03:29:38;;;;;;;15.38;11.18;;;8.70;90.80;;;;;;1924941;74;21030;-45
2022/01/11 03:32:09;;;;;;;15.50;10.43;;;8.70;90.80;;;;;;1924798;74;21034;-46
2022/01/11 03:34:38;;;;;;;17.48;11.20;;;8.70;90.80;;;;;;1924757;74;21022;-46
2022/01/11 03:37:07;;;;;;;16.07;10.68;;;8.70;90.90;;;;;;1924796;74;21030;-47
2022/01/11 03:39:37;;;;;;;15.60;10.40;;;8.80;90.90;;;;;;1924713;74;20995;-45
2022/01/11 03:42:06;;;;;;;16.55;11.30;;;8.80;90.80;;;;;;1924758;74;21084;-45
2022/01/11 03:44:36;;;;;;;16.35;11.30;;;8.80;90.80;;;;;;1924733;74;21144;-45
2022/01/11 03:47:06;;;;;;;20.45;12.85;;;8.80;90.80;;;;;;1903898;74;21019;-46
2022/01/11 03:49:36;;;;;;;16.95;10.58;;;8.90;90.80;;;;;;1924709;74;21038;-46
2022/01/11 03:52:05;;;;;;;15.38;9.83;;;8.80;90.30;;;;;;1924665;74;21082;-46
2022/01/11 03:55:01;;;;;;;17.80;10.08;;;8.70;90.40;;;;;;1924847;74;21023;-46
2022/01/11 03:57:13;;;;;;;15.15;9.25;;;8.60;90.20;;;;;;1920615;74;21136;-46
2022/01/11 03:59:44;;;;;;;13.58;8.93;;;8.60;90.40;;;;;;1924493;74;21025;-47
2022/01/11 04:02:14;;;;;;;14.18;9.53;;;8.50;90.30;;;;;;1924659;74;21003;-45
2022/01/11 04:04:52;;;;;;;12.70;8.60;;;8.50;90.40;;;;;;1924562;74;21002;-46
2022/01/11 04:07:15;;;;;;;12.43;9.60;;;8.50;90.60;;;;;;1923807;74;21120;-46
2022/01/11 04:09:44;;;;;;;15.40;9.15;;;8.40;90.50;;;;;;1924745;74;21058;-45
2022/01/11 04:12:16;;;;;;;15.88;9.73;;;8.50;90.70;;;;;;1924689;74;21073;-46
2022/01/11 04:14:46;;;;;;;12.43;9.88;;;8.50;90.60;;;;;;1907683;74;21055;-46
2022/01/11 04:17:15;;;;;;;15.80;9.48;;;8.40;90.30;;;;;;1905277;74;21085;-46
2022/01/11 04:19:45;;;;;;;12.88;8.78;;;8.40;90.40;;;;;;1905381;75;20999;-46
2022/01/11 04:22:15;;;;;;;17.10;10.13;;;8.40;90.40;;;;;;1905367;75;21094;-46
2022/01/11 04:24:44;;;;;;;20.23;10.78;;;8.40;90.30;;;;;;1905434;74;21039;-46
2022/01/11 04:27:14;;;;;;;23.60;11.88;;;8.30;90.40;;;;;;1905493;75;21478;-46
2022/01/11 04:29:45;;;;;;;17.67;11.55;;;8.20;90.40;;;;;;1905328;75;21035;-46
2022/01/11 04:32:14;;;;;;;14.18;10.63;;;8.20;90.40;;;;;;1905404;75;21109;-46
2022/01/11 04:34:44;;;;;;;19.82;11.73;;;8.10;90.40;;;;;;1905470;75;21035;-46
2022/01/11 04:37:13;;;;;;;19.42;10.85;;;8.10;90.40;;;;;;1905184;75;21092;-47
2022/01/11 04:39:43;;;;;;;18.35;11.45;;;8.10;90.50;;;;;;1905194;75;21066;-45
2022/01/11 04:42:12;;;;;;;21.50;12.05;;;8.10;90.70;;;;;;1905144;74;21066;-46
2022/01/11 04:44:42;;;;;;;31.02;19.70;;;8.10;90.80;;;;;;1905252;75;21050;-46
2022/01/11 04:47:12;;;;;;;37.70;25.00;;;8.10;90.70;;;;;;1905307;75;20999;-46
2022/01/11 04:49:42;;;;;;;28.35;17.62;;;8.20;90.80;;;;;;1905223;75;21039;-45
2022/01/11 04:52:11;;;;;;;26.55;17.87;;;8.20;90.80;;;;;;1905228;75;21088;-45
2022/01/11 04:54:41;;;;;;;32.98;21.60;;;8.30;90.90;;;;;;1905243;75;21074;-46
2022/01/11 04:57:10;;;;;;;18.05;14.68;;;8.30;90.80;;;;;;1905292;75;21027;-45
2022/01/11 04:59:40;;;;;;;21.55;13.38;;;8.40;90.80;;;;;;1905217;75;21047;-46
2022/01/11 05:02:10;;;;;;;15.50;11.53;;;8.40;90.80;;;;;;1905353;74;21028;-45
2022/01/11 05:04:40;;;;;;;22.32;11.40;;;8.40;90.70;;;;;;1905312;75;21024;-46
2022/01/11 05:07:10;;;;;;;16.65;12.35;;;8.40;90.70;;;;;;1905148;75;21027;-45
2022/01/11 05:09:40;;;;;;;16.45;11.30;;;8.40;90.80;;;;;;1905315;75;21040;-46
2022/01/11 05:12:11;;;;;;;19.37;11.80;;;8.40;90.80;;;;;;1905274;75;21082;-46
2022/01/11 05:14:40;;;;;;;16.82;12.03;;;8.40;90.80;;;;;;1916921;74;21054;-46
2022/01/11 05:17:10;;;;;;;16.90;11.97;;;8.40;90.80;;;;;;1924558;74;21530;-46
2022/01/11 05:19:39;;;;;;;16.57;11.05;;;8.50;90.90;;;;;;1924621;74;21027;-46
2022/01/11 05:22:08;;;;;;;18.77;13.18;;;8.50;90.90;;;;;;1924499;74;21027;-46
2022/01/11 05:24:37;;;;;;;18.57;12.50;;;8.50;90.80;;;;;;1924597;74;21023;-46
2022/01/11 05:27:07;;;;;;;23.35;13.75;;;8.50;90.80;;;;;;1924646;74;21021;-47
2022/01/11 05:29:37;;;;;;;23.77;14.87;;;8.50;90.90;;;;;;1924589;74;21096;-46
2022/01/11 05:32:07;;;;;;;21.60;14.20;;;8.60;90.80;;;;;;1924787;74;21120;-46
2022/01/11 05:34:36;;;;;;;32.95;17.30;;;8.60;90.90;;;;;;1924734;74;21084;-46
2022/01/11 05:37:05;;;;;;;25.05;17.30;;;8.60;90.90;;;;;;1924778;74;21022;-46
2022/01/11 05:39:36;;;;;;;31.23;22.87;;;8.60;90.90;;;;;;1924775;74;21093;-45
2022/01/11 05:42:07;;;;;;;36.03;24.37;;;8.70;90.90;;;;;;1924774;74;21108;-45
2022/01/11 05:44:37;;;;;;;33.00;20.82;;;8.70;90.90;;;;;;1924640;74;21113;-47
2022/01/11 05:47:07;;;;;;;46.13;27.05;;;8.70;91.20;;;;;;1924724;74;21092;-46
2022/01/11 05:49:37;;;;;;;49.58;32.10;;;8.80;90.90;;;;;;1924769;74;21088;-45
2022/01/11 05:52:06;;;;;;;36.88;24.07;;;8.80;91.00;;;;;;1924774;74;21084;-45
2022/01/11 05:54:36;;;;;;;37.33;25.60;;;8.80;90.90;;;;;;1924667;74;21022;-46
2022/01/11 05:57:05;;;;;;;39.67;26.87;;;8.80;91.00;;;;;;1924698;74;21084;-45
2022/01/11 05:59:35;;;;;;;41.15;24.87;;;8.80;91.00;;;;;;1924735;74;21026;-46
2022/01/11 06:02:05;;;;;;;38.50;25.52;;;8.80;91.00;;;;;;1924564;74;21023;-45
2022/01/11 06:04:35;;;;;;;35.68;22.60;;;8.90;91.00;;;;;;1924561;74;21446;-47
2022/01/11 06:07:04;;;;;;;36.80;25.37;;;8.90;91.00;;;;;;1924504;74;21019;-46
2022/01/11 06:09:35;;;;;;;39.70;21.77;;;8.90;91.00;;;;;;1924644;74;21019;-46
2022/01/11 06:12:05;;;;;;;36.48;27.87;;;8.90;91.00;;;;;;1924593;74;21076;-46
2022/01/11 06:14:35;;;;;;;41.45;24.80;;;8.90;90.90;;;;;;1918489;74;21063;-45
2022/01/11 06:17:05;;;;;;;43.08;21.90;;;8.90;91.00;;;;;;1905281;75;21000;-47
2022/01/11 06:19:34;;;;;;;53.45;29.90;;;8.90;91.00;;;;;;1905211;74;21000;-45
2022/01/11 06:22:05;;;;;;;34.15;22.75;;;8.80;91.00;;;;;;1903862;74;21137;-45
2022/01/11 06:24:35;;;;;;;32.42;20.27;;;8.80;91.00;;;;;;1905197;75;21031;-46
2022/01/11 06:27:04;;;;;;;35.78;20.32;;;8.80;91.10;;;;;;1905241;74;21011;-47
2022/01/11 06:29:34;;;;;;;34.08;21.37;;;8.80;90.90;;;;;;1905248;74;21081;-46
2022/01/11 06:32:03;;;;;;;31.82;18.95;;;8.80;90.90;;;;;;1905273;75;21093;-46
2022/01/11 06:34:33;;;;;;;27.95;18.10;;;8.70;90.80;;;;;;1905172;75;21070;-46
2022/01/11 06:37:03;;;;;;;29.52;18.77;;;8.70;90.90;;;;;;1905321;74;21105;-45
2022/01/11 06:39:36;;;;;;;23.32;16.90;;;8.80;91.00;;;;;;1905462;75;21089;-46
2022/01/11 06:42:07;;;;;;;27.30;19.87;;;8.80;91.00;;;;;;1905186;74;21031;-46
2022/01/11 06:44:38;;;;;;;23.90;16.07;;;8.80;90.90;;;;;;1905186;74;21031;-45
2022/01/11 06:47:08;;;;;;;23.10;15.25;;;8.90;90.90;;;;;;1905291;75;21019;-47
2022/01/11 06:49:37;;;;;;;29.25;18.70;;;8.90;90.90;;;;;;1905200;75;21023;-46
2022/01/11 06:52:07;;;;;;;25.27;17.42;;;8.90;90.90;;;;;;1905307;75;21093;-46
2022/01/11 06:54:38;;;;;;;28.42;16.87;;;9.00;91.00;;;;;;1905012;74;21034;-46
2022/01/11 06:57:07;;;;;;;27.80;19.10;;;9.00;91.00;;;;;;1905223;75;21004;-45
2022/01/11 06:59:37;;;;;;;35.00;20.72;;;9.00;91.00;;;;;;1905351;75;21039;-47
2022/01/11 07:02:07;;;;;;;29.72;18.30;;;9.00;91.00;;;;;;1905384;75;21003;-46
2022/01/11 07:04:38;;;;;;;28.83;19.70;;;9.10;91.00;;;;;;1904688;74;21030;-45
2022/01/11 07:07:08;;;;;;;26.97;18.52;;;9.20;91.00;;;;;;1905389;75;21026;-46
2022/01/11 07:09:38;;;;;;;34.78;23.60;;;9.20;91.00;;;;;;1905333;74;21055;-45
2022/01/11 07:12:08;;;;;;;30.95;20.85;;;9.30;91.00;;;;;;1905364;74;21023;-46
2022/01/11 07:14:38;;;;;;;33.18;21.07;;;9.30;91.00;;;;;;1907019;74;20999;-46
2022/01/11 07:17:08;;;;;;;25.95;17.52;;;9.30;90.70;;;;;;1924751;74;21018;-47
2022/01/11 07:19:37;;;;;;;19.98;13.18;;;9.30;90.70;;;;;;1924837;74;21031;-47
2022/01/11 07:22:09;;;;;;;27.37;13.45;;;9.40;90.70;;;;;;1924299;74;21143;-46
2022/01/11 07:24:40;;;;;;;23.07;14.13;;;9.30;90.50;;;;;;1924577;74;21072;-47
2022/01/11 07:27:09;;;;;;;20.60;14.83;;;9.30;90.50;;;;;;1904059;74;20991;-46
2022/01/11 07:29:39;;;;;;;18.50;11.83;;;9.30;90.50;;;;;;1924786;74;21015;-46
2022/01/11 07:32:09;;;;;;;17.60;11.30;;;9.40;90.60;;;;;;1924643;74;21022;-46
2022/01/11 07:34:38;;;;;;;17.05;10.75;;;9.30;90.40;;;;;;1923639;74;21085;-46
2022/01/11 07:37:08;;;;;;;17.32;10.53;;;9.30;90.40;;;;;;1923846;74;21084;-45
2022/01/11 07:39:39;;;;;;;14.63;10.58;;;9.30;90.50;;;;;;1924394;74;21101;-46
2022/01/11 07:42:09;;;;;;;23.52;11.90;;;9.30;90.60;;;;;;1923988;74;21117;-46
2022/01/11 07:44:48;;;;;;;22.32;12.13;;;9.30;90.50;;;;;;1916864;74;21038;-45
2022/01/11 07:47:26;;;;;;;;;;;9.40;90.50;;;;;;1927110;74;21007;-45
2022/01/11 07:50:06;;;;;;;21.50;12.30;;;9.40;90.10;;;;;;1923136;74;20133;-45
2022/01/11 07:52:43;;;;;;;23.65;13.68;;;9.40;90.40;;;;;;1897978;74;21468;-45
2022/01/11 07:55:21;;;;;;;21.62;14.38;;;9.40;90.60;;;;;;1890151;75;21484;-44
2022/01/11 07:57:58;;;;;;;20.30;13.88;;;9.40;90.40;;;;;;1890951;75;21426;-45
2022/01/11 08:00:31;;;;;;;24.32;15.90;;;9.50;90.40;;;;;;1890517;75;21103;-46
2022/01/11 08:03:00;;;;;;;28.12;17.70;;;9.50;90.40;;;;;;1890935;75;21082;-46
2022/01/11 08:05:34;;;;;;;28.50;16.00;;;9.50;90.40;;;;;;1888625;75;21105;-46
2022/01/11 08:08:04;;;;;;;33.75;17.52;;;9.50;90.40;;;;;;1890620;75;21081;-46
2022/01/11 08:10:35;;;;;;;24.05;16.25;;;9.60;90.30;;;;;;1890720;75;21023;-45
2022/01/11 08:13:08;;;;;;;27.40;17.02;;;9.60;90.30;;;;;;1890971;75;21050;-45
2022/01/11 08:15:36;;;;;;;27.07;17.90;;;9.60;90.40;;;;;;1885971;75;21183;-46
2022/01/11 08:18:08;;;;;;;24.90;16.77;;;9.60;90.40;;;;;;1872126;76;20999;-46
2022/01/11 08:20:39;;;;;;;27.77;18.15;;;9.60;90.50;;;;;;1871892;76;21083;-47
2022/01/11 08:23:10;;;;;;;30.02;17.55;;;9.70;90.60;;;;;;1871966;76;21513;-47
2022/01/11 08:25:39;;;;;;;21.75;15.32;;;9.70;90.50;;;;;;1872078;76;21031;-48
2022/01/11 08:28:13;;;;;;;20.92;13.28;;;9.70;90.50;;;;;;1872190;77;21011;-47
2022/01/11 08:30:44;;;;;;;22.22;15.00;;;9.80;90.20;;;;;;1871711;76;21163;-47
2022/01/11 08:33:15;;;;;;;23.67;15.90;;;9.80;90.20;;;;;;1871886;76;21078;-45
2022/01/11 08:35:45;;;;;;;19.75;13.65;;;9.80;90.30;;;;;;1872151;77;21071;-46
2022/01/11 08:38:16;;;;;;;18.27;12.98;;;9.90;90.20;;;;;;1872069;76;21465;-46
2022/01/11 08:40:46;;;;;;;23.57;14.98;;;9.90;90.20;;;;;;1872129;76;21104;-45
2022/01/11 08:43:16;;;;;;;24.37;14.05;;;9.90;90.00;;;;;;1871945;77;21112;-45
2022/01/11 08:45:46;;;;;;;23.07;13.90;;;9.90;90.10;;;;;;1871981;77;21045;-47
2022/01/11 08:48:17;;;;;;;22.02;12.75;;;10.00;90.10;;;;;;1872117;76;21151;-47
2022/01/11 08:50:57;;;;;;;20.43;12.85;;;10.00;90.10;;;;;;1870700;76;21156;-47
2022/01/11 08:53:28;;;;;;;22.40;13.50;;;10.00;89.80;;;;;;1871946;75;21554;-46
2022/01/11 08:55:59;;;;;;;20.52;13.80;;;10.00;89.90;;;;;;1871858;77;21215;-45
2022/01/11 08:58:28;;;;;;;21.23;13.20;;;10.00;90.10;;;;;;1871946;76;21079;-46
2022/01/11 09:00:59;;;;;;;18.50;12.82;;;10.10;90.00;;;;;;1872216;76;21039;-45
2022/01/11 09:03:29;;;;;;;16.75;11.38;;;10.10;89.90;;;;;;1858270;77;21019;-45
2022/01/11 09:05:59;;;;;;;21.70;12.28;;;10.10;89.80;;;;;;1872061;76;21039;-46
2022/01/11 09:08:28;;;;;;;23.18;12.90;;;10.10;89.60;;;;;;1872303;76;21035;-46
2022/01/11 09:11:06;;;;;;;29.02;16.85;;;10.20;89.40;;;;;;1872042;76;21511;-48
2022/01/11 09:13:38;;;;;;;26.05;15.50;;;10.20;89.50;;;;;;1871756;75;21089;-46
2022/01/11 09:16:08;;;;;;;22.77;14.47;;;10.20;89.70;;;;;;1876377;75;21061;-46
2022/01/11 09:18:39;;;;;;;29.40;15.72;;;10.20;89.60;;;;;;1890929;75;21058;-46
2022/01/11 09:21:09;;;;;;;32.78;17.20;;;10.30;89.80;;;;;;1892295;74;21040;-47
2022/01/11 09:23:39;;;;;;;23.25;14.25;;;10.30;89.80;;;;;;1895780;74;21133;-47
2022/01/11 09:26:09;;;;;;;20.88;12.90;;;10.40;89.50;;;;;;1910799;74;21023;-46
2022/01/11 09:28:40;;;;;;;17.40;11.88;;;10.40;89.40;;;;;;1905430;74;21438;-46
2022/01/11 09:31:10;;;;;;;21.55;13.45;;;10.50;89.30;;;;;;1905386;74;21070;-46
2022/01/11 09:33:39;;;;;;;23.47;12.13;;;10.50;89.20;;;;;;1905272;74;21137;-47
2022/01/11 09:36:08;;;;;;;23.40;12.37;;;10.60;89.20;;;;;;1905690;74;21141;-45
2022/01/11 09:38:38;;;;;;;21.60;13.30;;;10.60;89.10;;;;;;1905539;74;21082;-48
2022/01/11 09:41:07;;;;;;;15.98;11.10;;;10.60;89.00;;;;;;1899648;74;21020;-48
2022/01/11 09:43:38;;;;;;;16.70;11.03;;;10.70;88.90;;;;;;1922709;74;21220;-47
2022/01/11 09:46:09;;;;;;;17.15;11.80;;;10.70;88.80;;;;;;1923025;74;21034;-46
2022/01/11 09:48:41;;;;;;;21.55;11.63;;;10.70;88.90;;;;;;1923704;74;21062;-47
2022/01/11 09:51:10;;;;;;;16.52;11.15;;;10.70;88.90;;;;;;1924101;74;21573;-48
2022/01/11 09:53:40;;;;;;;16.77;10.08;;;10.70;88.50;;;;;;1923929;74;21096;-47
2022/01/11 09:56:12;;;;;;;17.77;11.18;;;10.80;88.50;;;;;;1924104;74;21131;-46
2022/01/11 09:58:42;;;;;;;17.30;10.28;;;10.80;87.90;;;;;;1924005;74;21015;-45
2022/01/11 10:01:29;;;;;;;19.73;11.70;;;10.80;88.10;;;;;;1924056;74;21497;-48
2022/01/11 10:04:16;;;;;;;15.93;9.65;;;10.80;87.40;;;;;;1924192;74;21148;-45
2022/01/11 10:06:49;;;;;;;19.60;10.55;;;10.80;87.40;;;;;;1923142;74;21493;-50
2022/01/11 10:09:21;;;;;;;21.07;13.15;;;10.90;87.70;;;;;;1923706;74;21108;-47
2022/01/11 10:11:53;;;;;;;17.05;10.53;;;10.90;87.40;;;;;;1924068;74;21059;-47
2022/01/11 10:14:34;;;;;;;15.98;10.40;;;11.00;87.50;;;;;;1924066;74;21077;-46
2022/01/11 10:17:28;;;;;;;17.25;10.88;;;10.90;87.40;;;;;;1923957;73;21178;-44
2022/01/11 10:20:16;;;;;;;13.53;9.18;;;10.90;87.00;;;;;;1923595;74;21082;-44
2022/01/11 10:23:08;;;;;;;16.15;10.45;;;10.90;86.90;;;;;;1891408;74;21167;-46
2022/01/11 10:25:50;;;;;;;16.95;9.95;;;10.90;87.40;;;;;;1923754;74;21050;-45
2022/01/11 10:28:21;;;;;;;19.00;10.58;;;10.90;87.50;;;;;;1923903;74;21143;-44
2022/01/11 10:30:52;;;;;;;23.47;11.12;;;11.00;87.40;;;;;;1922784;74;21210;-45
2022/01/11 10:33:21;;;;;;;17.23;10.48;;;11.10;87.60;;;;;;1923963;74;21074;-44
2022/01/11 10:35:51;;;;;;;21.33;10.32;;;11.10;88.10;;;;;;1923935;74;21092;-45
2022/01/11 10:38:41;;;;;;;15.03;10.45;;;11.10;87.60;;;;;;1922120;74;21149;-45
2022/01/11 10:41:37;;;;;;;25.75;10.78;;;11.20;87.80;;;;;;1923583;74;21093;-46
2022/01/11 10:44:07;;;;;;;17.67;10.35;;;11.20;87.60;;;;;;1914825;74;21010;-47
2022/01/11 10:46:46;;;;;;;18.67;10.18;;;11.30;87.40;;;;;;1924114;74;21088;-46
2022/01/11 10:49:19;;;;;;;18.80;10.95;;;11.30;87.70;;;;;;1923942;74;21014;-45
2022/01/11 10:51:50;;;;;;;16.97;10.90;;;11.30;87.70;;;;;;1920914;74;21077;-47
2022/01/11 10:54:25;;;;;;;21.45;10.85;;;11.40;87.80;;;;;;1917868;74;21372;-47
2022/01/11 10:56:54;;;;;;;19.82;10.85;;;11.40;87.50;;;;;;1924008;74;21320;-47
2022/01/11 10:59:24;;;;;;;18.15;10.78;;;11.40;87.50;;;;;;1923989;74;21062;-47
2022/01/11 11:01:54;;;;;;;18.07;10.55;;;11.40;87.50;;;;;;1923926;74;21030;-46
2022/01/11 11:04:33;;;;;;;19.62;11.50;;;11.30;87.40;;;;;;1923754;74;21180;-46
2022/01/11 11:07:15;;;;;;;18.95;11.08;;;11.30;87.40;;;;;;1923798;73;21183;-46
2022/01/11 11:09:54;;;;;;;20.92;11.10;;;11.20;87.50;;;;;;1921552;74;21097;-47
2022/01/11 11:12:23;;;;;;;19.73;11.28;;;11.10;87.60;;;;;;1923122;74;21019;-46
2022/01/11 11:15:00;;;;;;;17.17;10.65;;;11.10;87.70;;;;;;1922625;74;21045;-46
2022/01/11 11:17:39;;;;;;;17.75;10.32;;;11.00;88.40;;;;;;1918057;74;21051;-46
2022/01/11 11:20:24;;;;;;;17.62;10.50;;;11.00;87.70;;;;;;1902364;74;21158;-45
2022/01/11 11:22:53;;;;;;;20.00;10.95;;;11.00;87.90;;;;;;1904741;75;21157;-46
2022/01/11 11:25:23;;;;;;;18.57;11.33;;;11.00;88.50;;;;;;1904498;75;21020;-46
2022/01/11 11:27:52;;;;;;;17.48;10.80;;;11.00;87.90;;;;;;1904597;75;21332;-45
2022/01/11 11:30:22;;;;;;;19.55;11.73;;;11.10;88.00;;;;;;1904664;75;21036;-44
2022/01/11 11:32:53;;;;;;;18.27;11.18;;;11.10;87.80;;;;;;1904397;75;21077;-47
2022/01/11 11:35:22;;;;;;;20.70;10.85;;;11.20;87.50;;;;;;1904638;75;21024;-45
2022/01/11 11:37:54;;;;;;;16.40;11.05;;;11.30;87.50;;;;;;1904615;74;21027;-46
2022/01/11 11:40:25;;;;;;;17.73;10.82;;;11.30;87.20;;;;;;1904211;74;21078;-45
2022/01/11 11:42:59;;;;;;;19.80;11.63;;;11.30;86.90;;;;;;1904565;75;21027;-47
2022/01/11 11:45:30;;;;;;;17.48;10.85;;;11.40;87.20;;;;;;1904569;75;21055;-46
2022/01/11 11:48:15;;;;;;;20.62;11.73;;;11.40;87.00;;;;;;1903859;75;21136;-46
2022/01/11 11:50:57;;;;;;;19.50;11.38;;;11.40;87.00;;;;;;1903628;74;21364;-46
2022/01/11 11:53:35;;;;;;;18.30;11.68;;;11.50;86.90;;;;;;1904620;75;21537;-46
2022/01/11 11:56:26;;;;;;;16.65;10.38;;;11.40;86.90;;;;;;1904492;75;21059;-45
2022/01/11 11:58:58;;;;;;;16.05;10.98;;;11.50;86.70;;;;;;1904709;75;21046;-46
2022/01/11 12:01:45;;;;;;;19.48;11.65;;;11.50;86.90;;;;;;1904605;75;21027;-45
2022/01/11 12:04:16;;;;;;;17.85;10.68;;;11.50;87.00;;;;;;1904628;75;21462;-45
2022/01/11 12:06:47;;;;;;;17.62;11.50;;;11.50;87.10;;;;;;1904642;75;21082;-46
2022/01/11 12:09:20;;;;;;;17.62;10.28;;;11.50;87.00;;;;;;1904754;75;21044;-46
2022/01/11 12:11:51;;;;;;;19.17;11.75;;;11.40;86.90;;;;;;1904595;75;21485;-49
2022/01/11 12:14:32;;;;;;;19.70;11.22;;;11.40;86.90;;;;;;1903793;74;21027;-47
2022/01/11 12:17:18;;;;;;;21.30;13.03;;;11.40;86.80;;;;;;1904415;75;21070;-44
2022/01/11 12:19:49;;;;;;;18.87;11.22;;;11.30;86.70;;;;;;1923657;74;21038;-45
2022/01/11 12:22:23;;;;;;;17.42;11.50;;;11.30;86.90;;;;;;1923309;74;21113;-44
2022/01/11 12:24:55;;;;;;;22.20;11.75;;;11.20;87.00;;;;;;1923858;74;21078;-44
2022/01/11 12:27:26;;;;;;;16.27;9.33;;;11.20;87.30;;;;;;1924218;74;21105;-44
2022/01/11 12:30:00;;;;;;;19.52;11.68;;;11.10;87.40;;;;;;1924633;74;21030;-46
2022/01/11 12:32:32;;;;;;;20.95;11.63;;;11.10;87.40;;;;;;1924872;74;21139;-44
2022/01/11 12:35:04;;;;;;;19.07;12.63;;;11.00;87.40;;;;;;1924734;74;21030;-45
2022/01/11 12:37:36;;;;;;;22.40;11.48;;;11.00;87.40;;;;;;1924713;74;21042;-44
2022/01/11 12:40:35;;;;;;;22.60;12.80;;;11.00;87.60;;;;;;1924617;74;21026;-44
2022/01/11 12:43:05;;;;;;;22.00;12.33;;;10.90;87.70;;;;;;1924385;74;21038;-44
2022/01/11 12:45:58;;;;;;;21.17;11.40;;;10.90;87.70;;;;;;1924590;74;21023;-47
2022/01/11 12:48:57;;;;;;;20.10;10.93;;;10.80;87.60;;;;;;1924588;74;21023;-45
2022/01/11 12:51:29;;;;;;;18.40;10.98;;;10.70;87.90;;;;;;1924720;74;21120;-45
2022/01/11 12:54:25;;;;;;;24.07;12.05;;;10.50;87.90;;;;;;1924712;74;21092;-46
2022/01/11 12:56:57;;;;;;;21.12;13.45;;;10.40;88.30;;;;;;1924677;74;21042;-46
2022/01/11 12:59:32;;;;;;;21.62;11.90;;;10.30;88.30;;;;;;1921226;74;21116;-45
2022/01/11 13:02:08;;;;;;;23.65;12.28;;;10.20;88.80;;;;;;1923783;74;21179;-46